Terminal Aerodrome Forecast
Issued by NWS

Home | Current Version | Previous Version | Text Only | Print | Product List | Glossary On
Versions: 1 2 3 4 5 6 7 8 9 10 11 12 13 14 15 16 17 18 19 20
020
FTUS46 KMTR 140529
TAFMRY
TAF
KMRY 140529Z 1406/1506 VRB03KT P6SM FEW008 SCT250
      TEMPO 1412/1416 6SM BR SCT008 BKN250
     FM141800 30010KT P6SM SKC
     FM150300 29006KT P6SM SKC=

USA.gov is the U.S. government's official web portal to all federal, state and local government web resources and services.